sensor_id;sensor_type;location;lat;lon;timestamp;P1;durP1;ratioP1;P2;durP2;ratioP2
35634;SDS011;21757;43.610;1.440;2023-08-06T00:00:22;8.10;;;4.00;;
35634;SDS011;21757;43.610;1.440;2023-08-06T00:02:48;4.50;;;2.95;;
35634;SDS011;21757;43.610;1.440;2023-08-06T00:05:14;6.45;;;3.00;;
35634;SDS011;21757;43.610;1.440;2023-08-06T00:07:46;9.15;;;3.38;;
35634;SDS011;21757;43.610;1.440;2023-08-06T00:10:12;5.97;;;2.88;;
35634;SDS011;21757;43.610;1.440;2023-08-06T00:12:38;9.30;;;3.60;;
35634;SDS011;21757;43.610;1.440;2023-08-06T00:15:04;7.18;;;3.40;;
35634;SDS011;21757;43.610;1.440;2023-08-06T00:17:30;8.48;;;3.22;;
35634;SDS011;21757;43.610;1.440;2023-08-06T00:19:55;9.75;;;3.33;;
35634;SDS011;21757;43.610;1.440;2023-08-06T00:22:21;10.57;;;3.50;;
35634;SDS011;21757;43.610;1.440;2023-08-06T00:24:47;9.20;;;3.40;;
35634;SDS011;21757;43.610;1.440;2023-08-06T00:27:12;7.35;;;3.40;;
35634;SDS011;21757;43.610;1.440;2023-08-06T00:29:38;8.25;;;3.05;;
35634;SDS011;21757;43.610;1.440;2023-08-06T00:32:04;9.50;;;3.75;;
35634;SDS011;21757;43.610;1.440;2023-08-06T00:34:29;7.53;;;3.70;;
35634;SDS011;21757;43.610;1.440;2023-08-06T00:36:58;12.30;;;3.15;;
35634;SDS011;21757;43.610;1.440;2023-08-06T00:39:24;8.20;;;3.60;;
35634;SDS011;21757;43.610;1.440;2023-08-06T00:41:49;12.00;;;3.80;;
35634;SDS011;21757;43.610;1.440;2023-08-06T00:44:15;4.80;;;2.92;;
35634;SDS011;21757;43.610;1.440;2023-08-06T00:46:41;9.43;;;3.28;;
35634;SDS011;21757;43.610;1.440;2023-08-06T00:49:06;7.22;;;3.13;;
35634;SDS011;21757;43.610;1.440;2023-08-06T00:51:32;7.43;;;3.85;;
35634;SDS011;21757;43.610;1.440;2023-08-06T00:53:59;9.80;;;3.38;;
35634;SDS011;21757;43.610;1.440;2023-08-06T00:56:25;7.65;;;3.58;;
35634;SDS011;21757;43.610;1.440;2023-08-06T00:58:51;11.07;;;3.58;;
35634;SDS011;21757;43.610;1.440;2023-08-06T01:01:17;7.07;;;3.10;;
35634;SDS011;21757;43.610;1.440;2023-08-06T01:03:42;7.18;;;3.10;;
35634;SDS011;21757;43.610;1.440;2023-08-06T01:06:08;9.73;;;3.00;;
35634;SDS011;21757;43.610;1.440;2023-08-06T01:11:45;10.52;;;3.53;;
35634;SDS011;21757;43.610;1.440;2023-08-06T01:14:34;11.10;;;3.33;;
35634;SDS011;21757;43.610;1.440;2023-08-06T01:17:06;10.27;;;3.03;;
35634;SDS011;21757;43.610;1.440;2023-08-06T01:19:33;13.40;;;3.30;;
35634;SDS011;21757;43.610;1.440;2023-08-06T01:21:58;12.70;;;3.40;;
35634;SDS011;21757;43.610;1.440;2023-08-06T01:24:24;10.88;;;3.25;;
35634;SDS011;21757;43.610;1.440;2023-08-06T01:27:03;9.95;;;3.03;;
35634;SDS011;21757;43.610;1.440;2023-08-06T01:29:34;13.75;;;3.08;;
35634;SDS011;21757;43.610;1.440;2023-08-06T01:32:04;21.02;;;3.30;;
35634;SDS011;21757;43.610;1.440;2023-08-06T01:34:33;15.10;;;2.90;;
35634;SDS011;21757;43.610;1.440;2023-08-06T01:37:00;15.15;;;3.60;;
35634;SDS011;21757;43.610;1.440;2023-08-06T01:39:26;16.08;;;3.08;;
35634;SDS011;21757;43.610;1.440;2023-08-06T01:41:52;15.88;;;3.08;;
35634;SDS011;21757;43.610;1.440;2023-08-06T01:44:18;16.48;;;3.20;;
35634;SDS011;21757;43.610;1.440;2023-08-06T01:46:44;14.20;;;2.90;;
35634;SDS011;21757;43.610;1.440;2023-08-06T01:49:09;20.38;;;2.83;;
35634;SDS011;21757;43.610;1.440;2023-08-06T01:51:35;14.43;;;2.95;;
35634;SDS011;21757;43.610;1.440;2023-08-06T01:54:01;17.45;;;3.40;;
35634;SDS011;21757;43.610;1.440;2023-08-06T01:56:26;15.50;;;3.53;;
35634;SDS011;21757;43.610;1.440;2023-08-06T01:58:52;13.65;;;2.80;;
35634;SDS011;21757;43.610;1.440;2023-08-06T02:01:17;18.15;;;3.25;;
35634;SDS011;21757;43.610;1.440;2023-08-06T02:03:43;12.25;;;2.90;;
35634;SDS011;21757;43.610;1.440;2023-08-06T02:06:09;17.45;;;2.72;;
35634;SDS011;21757;43.610;1.440;2023-08-06T02:08:34;14.48;;;2.58;;
35634;SDS011;21757;43.610;1.440;2023-08-06T02:11:00;14.15;;;2.83;;
35634;SDS011;21757;43.610;1.440;2023-08-06T02:13:27;13.30;;;2.70;;
35634;SDS011;21757;43.610;1.440;2023-08-06T02:15:53;15.68;;;3.25;;
35634;SDS011;21757;43.610;1.440;2023-08-06T02:18:18;12.07;;;2.55;;
35634;SDS011;21757;43.610;1.440;2023-08-06T02:20:54;20.13;;;3.20;;
35634;SDS011;21757;43.610;1.440;2023-08-06T02:23:23;17.50;;;3.45;;
35634;SDS011;21757;43.610;1.440;2023-08-06T02:25:59;17.65;;;3.13;;
35634;SDS011;21757;43.610;1.440;2023-08-06T02:28:25;15.00;;;3.38;;
35634;SDS011;21757;43.610;1.440;2023-08-06T02:30:51;17.52;;;2.83;;
35634;SDS011;21757;43.610;1.440;2023-08-06T02:33:16;15.57;;;3.67;;
35634;SDS011;21757;43.610;1.440;2023-08-06T02:35:42;14.65;;;3.15;;
35634;SDS011;21757;43.610;1.440;2023-08-06T02:38:08;13.60;;;3.05;;
35634;SDS011;21757;43.610;1.440;2023-08-06T02:40:33;15.10;;;2.90;;
35634;SDS011;21757;43.610;1.440;2023-08-06T02:42:59;14.43;;;2.90;;
35634;SDS011;21757;43.610;1.440;2023-08-06T02:45:25;16.42;;;2.92;;
35634;SDS011;21757;43.610;1.440;2023-08-06T02:47:50;11.95;;;2.60;;
35634;SDS011;21757;43.610;1.440;2023-08-06T02:50:16;16.25;;;2.95;;
35634;SDS011;21757;43.610;1.440;2023-08-06T02:52:42;15.13;;;3.05;;
35634;SDS011;21757;43.610;1.440;2023-08-06T02:55:07;14.02;;;3.00;;
35634;SDS011;21757;43.610;1.440;2023-08-06T02:57:33;13.55;;;2.38;;
35634;SDS011;21757;43.610;1.440;2023-08-06T02:59:59;19.83;;;3.05;;
35634;SDS011;21757;43.610;1.440;2023-08-06T03:02:24;17.13;;;3.05;;
35634;SDS011;21757;43.610;1.440;2023-08-06T03:04:50;13.18;;;2.65;;
35634;SDS011;21757;43.610;1.440;2023-08-06T03:07:16;12.55;;;2.60;;
35634;SDS011;21757;43.610;1.440;2023-08-06T03:09:41;21.25;;;3.00;;
35634;SDS011;21757;43.610;1.440;2023-08-06T03:12:07;16.88;;;2.78;;
35634;SDS011;21757;43.610;1.440;2023-08-06T03:14:33;17.45;;;3.15;;
35634;SDS011;21757;43.610;1.440;2023-08-06T03:16:59;15.13;;;2.42;;
35634;SDS011;21757;43.610;1.440;2023-08-06T03:19:24;16.60;;;3.00;;
35634;SDS011;21757;43.610;1.440;2023-08-06T03:21:50;15.38;;;2.90;;
35634;SDS011;21757;43.610;1.440;2023-08-06T03:24:16;12.80;;;2.70;;
35634;SDS011;21757;43.610;1.440;2023-08-06T03:26:41;15.88;;;3.28;;
35634;SDS011;21757;43.610;1.440;2023-08-06T03:29:07;11.57;;;2.35;;
35634;SDS011;21757;43.610;1.440;2023-08-06T03:31:32;12.90;;;2.72;;
35634;SDS011;21757;43.610;1.440;2023-08-06T03:33:58;13.40;;;2.13;;
35634;SDS011;21757;43.610;1.440;2023-08-06T03:36:24;13.27;;;2.97;;
35634;SDS011;21757;43.610;1.440;2023-08-06T03:38:50;18.45;;;2.97;;
35634;SDS011;21757;43.610;1.440;2023-08-06T03:41:15;11.55;;;2.50;;
35634;SDS011;21757;43.610;1.440;2023-08-06T03:43:41;13.05;;;2.45;;
35634;SDS011;21757;43.610;1.440;2023-08-06T03:46:06;16.95;;;2.45;;
35634;SDS011;21757;43.610;1.440;2023-08-06T03:48:32;13.82;;;2.45;;
35634;SDS011;21757;43.610;1.440;2023-08-06T03:50:58;16.70;;;2.83;;
35634;SDS011;21757;43.610;1.440;2023-08-06T03:53:25;14.45;;;2.65;;
35634;SDS011;21757;43.610;1.440;2023-08-06T03:55:51;14.82;;;2.53;;
35634;SDS011;21757;43.610;1.440;2023-08-06T03:58:17;13.73;;;3.00;;
35634;SDS011;21757;43.610;1.440;2023-08-06T04:00:42;20.23;;;3.58;;
35634;SDS011;21757;43.610;1.440;2023-08-06T04:03:08;23.50;;;3.63;;
35634;SDS011;21757;43.610;1.440;2023-08-06T04:05:34;19.90;;;3.35;;
35634;SDS011;21757;43.610;1.440;2023-08-06T04:07:59;23.40;;;3.35;;
35634;SDS011;21757;43.610;1.440;2023-08-06T04:10:25;14.50;;;2.90;;
35634;SDS011;21757;43.610;1.440;2023-08-06T04:12:51;11.90;;;2.42;;
35634;SDS011;21757;43.610;1.440;2023-08-06T04:15:16;17.77;;;3.10;;
35634;SDS011;21757;43.610;1.440;2023-08-06T04:17:42;15.55;;;2.88;;
35634;SDS011;21757;43.610;1.440;2023-08-06T04:20:08;15.52;;;3.15;;
35634;SDS011;21757;43.610;1.440;2023-08-06T04:22:34;16.10;;;2.80;;
35634;SDS011;21757;43.610;1.440;2023-08-06T04:24:59;19.10;;;3.05;;
35634;SDS011;21757;43.610;1.440;2023-08-06T04:27:25;17.15;;;2.92;;
35634;SDS011;21757;43.610;1.440;2023-08-06T04:29:51;15.25;;;2.83;;
35634;SDS011;21757;43.610;1.440;2023-08-06T04:32:16;14.07;;;3.33;;
35634;SDS011;21757;43.610;1.440;2023-08-06T04:34:44;19.02;;;3.20;;
35634;SDS011;21757;43.610;1.440;2023-08-06T04:37:10;17.35;;;3.47;;
35634;SDS011;21757;43.610;1.440;2023-08-06T04:39:36;19.90;;;3.30;;
35634;SDS011;21757;43.610;1.440;2023-08-06T04:42:01;19.85;;;3.30;;
35634;SDS011;21757;43.610;1.440;2023-08-06T04:44:27;17.35;;;3.33;;
35634;SDS011;21757;43.610;1.440;2023-08-06T04:46:53;19.65;;;3.20;;
35634;SDS011;21757;43.610;1.440;2023-08-06T04:49:20;19.17;;;3.47;;
35634;SDS011;21757;43.610;1.440;2023-08-06T04:51:46;20.35;;;3.50;;
35634;SDS011;21757;43.610;1.440;2023-08-06T04:54:11;16.38;;;2.85;;
35634;SDS011;21757;43.610;1.440;2023-08-06T04:56:37;16.85;;;3.13;;
35634;SDS011;21757;43.610;1.440;2023-08-06T04:59:03;16.33;;;3.10;;
35634;SDS011;21757;43.610;1.440;2023-08-06T05:01:28;20.30;;;3.53;;
35634;SDS011;21757;43.610;1.440;2023-08-06T05:03:54;15.40;;;2.78;;
35634;SDS011;21757;43.610;1.440;2023-08-06T05:06:20;17.73;;;3.33;;
35634;SDS011;21757;43.610;1.440;2023-08-06T05:08:46;18.13;;;2.95;;
35634;SDS011;21757;43.610;1.440;2023-08-06T05:11:11;22.38;;;3.30;;
35634;SDS011;21757;43.610;1.440;2023-08-06T05:13:37;17.02;;;2.83;;
35634;SDS011;21757;43.610;1.440;2023-08-06T05:16:03;19.90;;;3.45;;
35634;SDS011;21757;43.610;1.440;2023-08-06T05:18:28;18.10;;;3.08;;
35634;SDS011;21757;43.610;1.440;2023-08-06T05:20:55;21.15;;;3.25;;
35634;SDS011;21757;43.610;1.440;2023-08-06T05:23:22;18.90;;;3.75;;
35634;SDS011;21757;43.610;1.440;2023-08-06T05:25:47;18.33;;;3.20;;
35634;SDS011;21757;43.610;1.440;2023-08-06T05:28:13;19.27;;;3.50;;
35634;SDS011;21757;43.610;1.440;2023-08-06T05:30:39;23.38;;;3.00;;
35634;SDS011;21757;43.610;1.440;2023-08-06T05:33:05;14.77;;;2.83;;
35634;SDS011;21757;43.610;1.440;2023-08-06T05:35:31;20.42;;;3.17;;
35634;SDS011;21757;43.610;1.440;2023-08-06T05:37:57;15.13;;;2.90;;
35634;SDS011;21757;43.610;1.440;2023-08-06T05:40:22;16.58;;;2.90;;
35634;SDS011;21757;43.610;1.440;2023-08-06T05:42:50;16.40;;;3.45;;
35634;SDS011;21757;43.610;1.440;2023-08-06T05:45:16;17.70;;;3.33;;
35634;SDS011;21757;43.610;1.440;2023-08-06T05:47:42;16.55;;;2.92;;
35634;SDS011;21757;43.610;1.440;2023-08-06T05:50:08;15.35;;;2.85;;
35634;SDS011;21757;43.610;1.440;2023-08-06T05:52:34;12.07;;;2.50;;
35634;SDS011;21757;43.610;1.440;2023-08-06T05:54:59;12.95;;;2.75;;
35634;SDS011;21757;43.610;1.440;2023-08-06T05:57:25;12.35;;;2.70;;
35634;SDS011;21757;43.610;1.440;2023-08-06T05:59:51;12.90;;;2.50;;
35634;SDS011;21757;43.610;1.440;2023-08-06T06:02:16;15.23;;;2.70;;
35634;SDS011;21757;43.610;1.440;2023-08-06T06:04:43;15.48;;;2.83;;
35634;SDS011;21757;43.610;1.440;2023-08-06T06:07:09;16.08;;;2.97;;
35634;SDS011;21757;43.610;1.440;2023-08-06T06:09:35;12.77;;;2.33;;
35634;SDS011;21757;43.610;1.440;2023-08-06T06:12:00;12.77;;;2.50;;
35634;SDS011;21757;43.610;1.440;2023-08-06T06:14:26;15.00;;;2.58;;
35634;SDS011;21757;43.610;1.440;2023-08-06T06:16:52;15.80;;;2.60;;
35634;SDS011;21757;43.610;1.440;2023-08-06T06:19:18;11.30;;;2.50;;
35634;SDS011;21757;43.610;1.440;2023-08-06T06:21:43;16.50;;;2.67;;
35634;SDS011;21757;43.610;1.440;2023-08-06T06:24:09;15.98;;;2.75;;
35634;SDS011;21757;43.610;1.440;2023-08-06T06:26:35;16.67;;;2.72;;
35634;SDS011;21757;43.610;1.440;2023-08-06T06:29:00;16.05;;;3.00;;
35634;SDS011;21757;43.610;1.440;2023-08-06T06:31:26;17.92;;;3.03;;
35634;SDS011;21757;43.610;1.440;2023-08-06T06:33:52;14.82;;;2.88;;
35634;SDS011;21757;43.610;1.440;2023-08-06T06:36:19;16.83;;;3.15;;
35634;SDS011;21757;43.610;1.440;2023-08-06T06:38:45;22.08;;;3.22;;
35634;SDS011;21757;43.610;1.440;2023-08-06T06:41:11;12.88;;;2.85;;
35634;SDS011;21757;43.610;1.440;2023-08-06T06:43:36;12.27;;;2.80;;
35634;SDS011;21757;43.610;1.440;2023-08-06T06:46:03;18.50;;;2.88;;
35634;SDS011;21757;43.610;1.440;2023-08-06T06:48:30;14.52;;;2.78;;
35634;SDS011;21757;43.610;1.440;2023-08-06T06:50:57;15.30;;;2.78;;
35634;SDS011;21757;43.610;1.440;2023-08-06T06:53:23;14.68;;;2.80;;
35634;SDS011;21757;43.610;1.440;2023-08-06T06:55:56;15.95;;;2.78;;
35634;SDS011;21757;43.610;1.440;2023-08-06T06:58:31;16.92;;;3.08;;
35634;SDS011;21757;43.610;1.440;2023-08-06T07:00:57;14.60;;;2.63;;
35634;SDS011;21757;43.610;1.440;2023-08-06T07:03:23;12.63;;;2.55;;
35634;SDS011;21757;43.610;1.440;2023-08-06T07:05:49;15.38;;;2.70;;
35634;SDS011;21757;43.610;1.440;2023-08-06T07:08:15;17.25;;;3.22;;
35634;SDS011;21757;43.610;1.440;2023-08-06T07:10:41;16.00;;;3.20;;
35634;SDS011;21757;43.610;1.440;2023-08-06T07:13:07;13.63;;;2.45;;
35634;SDS011;21757;43.610;1.440;2023-08-06T07:15:33;17.65;;;2.85;;
35634;SDS011;21757;43.610;1.440;2023-08-06T07:17:59;13.85;;;2.90;;
35634;SDS011;21757;43.610;1.440;2023-08-06T07:20:24;13.40;;;2.90;;
35634;SDS011;21757;43.610;1.440;2023-08-06T07:22:50;17.95;;;2.58;;
35634;SDS011;21757;43.610;1.440;2023-08-06T07:25:16;12.88;;;2.60;;
35634;SDS011;21757;43.610;1.440;2023-08-06T07:27:42;15.20;;;2.50;;
35634;SDS011;21757;43.610;1.440;2023-08-06T07:30:08;12.02;;;2.47;;
35634;SDS011;21757;43.610;1.440;2023-08-06T07:32:34;13.43;;;2.38;;
35634;SDS011;21757;43.610;1.440;2023-08-06T07:34:59;11.88;;;2.22;;
35634;SDS011;21757;43.610;1.440;2023-08-06T07:37:26;11.38;;;2.55;;
35634;SDS011;21757;43.610;1.440;2023-08-06T07:39:55;13.98;;;2.72;;
35634;SDS011;21757;43.610;1.440;2023-08-06T07:42:21;16.67;;;2.50;;
35634;SDS011;21757;43.610;1.440;2023-08-06T07:44:54;14.43;;;2.05;;
35634;SDS011;21757;43.610;1.440;2023-08-06T07:47:21;14.48;;;2.42;;
35634;SDS011;21757;43.610;1.440;2023-08-06T07:49:47;11.13;;;2.33;;
35634;SDS011;21757;43.610;1.440;2023-08-06T07:52:13;17.05;;;2.85;;
35634;SDS011;21757;43.610;1.440;2023-08-06T07:54:39;10.18;;;2.20;;
35634;SDS011;21757;43.610;1.440;2023-08-06T07:57:05;13.73;;;2.20;;
35634;SDS011;21757;43.610;1.440;2023-08-06T07:59:30;17.02;;;2.65;;
35634;SDS011;21757;43.610;1.440;2023-08-06T08:01:56;14.80;;;2.70;;
35634;SDS011;21757;43.610;1.440;2023-08-06T08:04:23;10.35;;;2.20;;
35634;SDS011;21757;43.610;1.440;2023-08-06T08:06:49;15.20;;;2.90;;
35634;SDS011;21757;43.610;1.440;2023-08-06T08:09:15;12.10;;;2.70;;
35634;SDS011;21757;43.610;1.440;2023-08-06T08:11:41;9.52;;;2.38;;
35634;SDS011;21757;43.610;1.440;2023-08-06T08:14:07;12.48;;;2.67;;
35634;SDS011;21757;43.610;1.440;2023-08-06T08:16:33;12.80;;;2.10;;
35634;SDS011;21757;43.610;1.440;2023-08-06T08:18:59;11.15;;;2.45;;
35634;SDS011;21757;43.610;1.440;2023-08-06T08:21:25;13.18;;;2.22;;
35634;SDS011;21757;43.610;1.440;2023-08-06T08:23:51;12.30;;;2.30;;
35634;SDS011;21757;43.610;1.440;2023-08-06T08:26:16;10.73;;;2.40;;
35634;SDS011;21757;43.610;1.440;2023-08-06T08:28:42;14.73;;;2.20;;
35634;SDS011;21757;43.610;1.440;2023-08-06T08:31:08;11.38;;;2.17;;
35634;SDS011;21757;43.610;1.440;2023-08-06T08:33:34;11.82;;;2.38;;
35634;SDS011;21757;43.610;1.440;2023-08-06T08:36:00;10.88;;;2.58;;
35634;SDS011;21757;43.610;1.440;2023-08-06T08:38:26;12.73;;;2.75;;
35634;SDS011;21757;43.610;1.440;2023-08-06T08:40:51;14.05;;;2.72;;
35634;SDS011;21757;43.610;1.440;2023-08-06T08:43:22;10.55;;;1.90;;
35634;SDS011;21757;43.610;1.440;2023-08-06T08:45:51;10.20;;;2.20;;
35634;SDS011;21757;43.610;1.440;2023-08-06T08:48:20;10.43;;;2.40;;
35634;SDS011;21757;43.610;1.440;2023-08-06T08:50:48;11.40;;;2.58;;
35634;SDS011;21757;43.610;1.440;2023-08-06T08:53:15;11.82;;;1.80;;
35634;SDS011;21757;43.610;1.440;2023-08-06T08:55:47;10.25;;;2.13;;
35634;SDS011;21757;43.610;1.440;2023-08-06T08:58:14;14.43;;;2.78;;
35634;SDS011;21757;43.610;1.440;2023-08-06T09:00:45;12.77;;;2.40;;
35634;SDS011;21757;43.610;1.440;2023-08-06T09:05:37;12.05;;;2.60;;
35634;SDS011;21757;43.610;1.440;2023-08-06T09:08:09;12.63;;;2.17;;
35634;SDS011;21757;43.610;1.440;2023-08-06T09:10:40;10.60;;;2.13;;
35634;SDS011;21757;43.610;1.440;2023-08-06T09:13:07;9.05;;;2.22;;
35634;SDS011;21757;43.610;1.440;2023-08-06T09:15:33;10.10;;;2.38;;
35634;SDS011;21757;43.610;1.440;2023-08-06T09:17:59;10.23;;;2.53;;
35634;SDS011;21757;43.610;1.440;2023-08-06T09:20:25;11.75;;;2.95;;
35634;SDS011;21757;43.610;1.440;2023-08-06T09:22:54;11.90;;;2.38;;
35634;SDS011;21757;43.610;1.440;2023-08-06T09:25:24;13.35;;;2.83;;
35634;SDS011;21757;43.610;1.440;2023-08-06T09:27:50;9.38;;;2.22;;
35634;SDS011;21757;43.610;1.440;2023-08-06T09:30:29;9.80;;;2.70;;
35634;SDS011;21757;43.610;1.440;2023-08-06T09:32:59;11.13;;;2.45;;
35634;SDS011;21757;43.610;1.440;2023-08-06T09:35:28;7.53;;;2.33;;
35634;SDS011;21757;43.610;1.440;2023-08-06T09:37:55;13.13;;;2.30;;
35634;SDS011;21757;43.610;1.440;2023-08-06T09:40:24;7.88;;;2.33;;
35634;SDS011;21757;43.610;1.440;2023-08-06T09:42:52;13.18;;;2.50;;
35634;SDS011;21757;43.610;1.440;2023-08-06T09:45:18;13.75;;;2.78;;
35634;SDS011;21757;43.610;1.440;2023-08-06T09:47:45;9.15;;;2.60;;
35634;SDS011;21757;43.610;1.440;2023-08-06T09:50:17;12.88;;;2.38;;
35634;SDS011;21757;43.610;1.440;2023-08-06T09:52:44;11.55;;;2.22;;
35634;SDS011;21757;43.610;1.440;2023-08-06T09:55:11;8.50;;;2.40;;
35634;SDS011;21757;43.610;1.440;2023-08-06T09:57:38;8.55;;;1.90;;
35634;SDS011;21757;43.610;1.440;2023-08-06T10:00:05;10.60;;;2.30;;
35634;SDS011;21757;43.610;1.440;2023-08-06T10:02:33;12.43;;;2.30;;
35634;SDS011;21757;43.610;1.440;2023-08-06T10:05:00;10.82;;;2.80;;
35634;SDS011;21757;43.610;1.440;2023-08-06T10:07:28;8.70;;;2.00;;
35634;SDS011;21757;43.610;1.440;2023-08-06T10:09:55;9.52;;;2.60;;
35634;SDS011;21757;43.610;1.440;2023-08-06T10:12:21;11.10;;;2.40;;
35634;SDS011;21757;43.610;1.440;2023-08-06T10:14:50;11.55;;;2.60;;
35634;SDS011;21757;43.610;1.440;2023-08-06T10:17:18;9.43;;;2.53;;
35634;SDS011;21757;43.610;1.440;2023-08-06T10:19:45;9.63;;;2.20;;
35634;SDS011;21757;43.610;1.440;2023-08-06T10:22:13;9.50;;;1.98;;
35634;SDS011;21757;43.610;1.440;2023-08-06T10:27:21;7.68;;;2.53;;
35634;SDS011;21757;43.610;1.440;2023-08-06T10:29:55;8.40;;;1.60;;
35634;SDS011;21757;43.610;1.440;2023-08-06T10:32:21;6.53;;;1.65;;
35634;SDS011;21757;43.610;1.440;2023-08-06T10:35:07;9.18;;;3.40;;
35634;SDS011;21757;43.610;1.440;2023-08-06T10:38:17;10.05;;;2.08;;
35634;SDS011;21757;43.610;1.440;2023-08-06T10:41:01;8.13;;;2.30;;
35634;SDS011;21757;43.610;1.440;2023-08-06T10:43:28;9.60;;;1.90;;
35634;SDS011;21757;43.610;1.440;2023-08-06T10:46:00;10.48;;;2.13;;
35634;SDS011;21757;43.610;1.440;2023-08-06T10:48:40;7.85;;;2.03;;
35634;SDS011;21757;43.610;1.440;2023-08-06T10:51:10;6.95;;;1.92;;
35634;SDS011;21757;43.610;1.440;2023-08-06T10:53:37;9.37;;;2.37;;
35634;SDS011;21757;43.610;1.440;2023-08-06T10:56:16;10.40;;;2.30;;
35634;SDS011;21757;43.610;1.440;2023-08-06T10:58:43;8.05;;;2.42;;
35634;SDS011;21757;43.610;1.440;2023-08-06T11:01:10;6.68;;;2.15;;
35634;SDS011;21757;43.610;1.440;2023-08-06T11:03:36;8.65;;;2.00;;
35634;SDS011;21757;43.610;1.440;2023-08-06T11:06:03;9.63;;;2.30;;
35634;SDS011;21757;43.610;1.440;2023-08-06T11:08:33;7.13;;;2.30;;
35634;SDS011;21757;43.610;1.440;2023-08-06T11:11:12;6.30;;;2.30;;
35634;SDS011;21757;43.610;1.440;2023-08-06T11:13:42;8.18;;;2.17;;
35634;SDS011;21757;43.610;1.440;2023-08-06T11:16:22;9.60;;;2.75;;
35634;SDS011;21757;43.610;1.440;2023-08-06T11:18:52;6.88;;;2.10;;
35634;SDS011;21757;43.610;1.440;2023-08-06T11:21:22;7.50;;;2.00;;
35634;SDS011;21757;43.610;1.440;2023-08-06T11:23:49;7.40;;;2.20;;
35634;SDS011;21757;43.610;1.440;2023-08-06T11:26:19;10.60;;;2.17;;
35634;SDS011;21757;43.610;1.440;2023-08-06T11:28:45;11.80;;;2.50;;
35634;SDS011;21757;43.610;1.440;2023-08-06T11:31:24;8.38;;;2.67;;
35634;SDS011;21757;43.610;1.440;2023-08-06T11:33:50;12.05;;;4.25;;
35634;SDS011;21757;43.610;1.440;2023-08-06T11:36:16;9.38;;;1.98;;
35634;SDS011;21757;43.610;1.440;2023-08-06T11:38:53;6.78;;;2.20;;
35634;SDS011;21757;43.610;1.440;2023-08-06T11:41:18;9.82;;;2.30;;
35634;SDS011;21757;43.610;1.440;2023-08-06T11:43:45;6.38;;;2.35;;
35634;SDS011;21757;43.610;1.440;2023-08-06T11:46:11;5.63;;;1.90;;
35634;SDS011;21757;43.610;1.440;2023-08-06T11:48:52;8.05;;;2.88;;
35634;SDS011;21757;43.610;1.440;2023-08-06T11:51:23;5.47;;;2.13;;
35634;SDS011;21757;43.610;1.440;2023-08-06T11:53:55;7.07;;;2.03;;
35634;SDS011;21757;43.610;1.440;2023-08-06T11:56:21;7.15;;;2.10;;
35634;SDS011;21757;43.610;1.440;2023-08-06T11:58:47;7.63;;;2.58;;
35634;SDS011;21757;43.610;1.440;2023-08-06T12:01:13;6.20;;;1.80;;
35634;SDS011;21757;43.610;1.440;2023-08-06T12:03:39;7.72;;;1.90;;
35634;SDS011;21757;43.610;1.440;2023-08-06T12:06:06;6.82;;;1.80;;
35634;SDS011;21757;43.610;1.440;2023-08-06T12:08:35;7.07;;;2.70;;
35634;SDS011;21757;43.610;1.440;2023-08-06T12:11:00;6.72;;;1.90;;
35634;SDS011;21757;43.610;1.440;2023-08-06T12:13:26;6.32;;;1.75;;
35634;SDS011;21757;43.610;1.440;2023-08-06T12:15:53;7.80;;;2.05;;
35634;SDS011;21757;43.610;1.440;2023-08-06T12:18:19;5.50;;;1.63;;
35634;SDS011;21757;43.610;1.440;2023-08-06T12:20:45;4.80;;;1.77;;
35634;SDS011;21757;43.610;1.440;2023-08-06T12:23:11;8.32;;;2.33;;
35634;SDS011;21757;43.610;1.440;2023-08-06T12:25:40;9.93;;;2.45;;
35634;SDS011;21757;43.610;1.440;2023-08-06T12:28:06;4.28;;;1.67;;
35634;SDS011;21757;43.610;1.440;2023-08-06T12:30:34;6.70;;;1.77;;
35634;SDS011;21757;43.610;1.440;2023-08-06T12:32:59;5.40;;;1.70;;
35634;SDS011;21757;43.610;1.440;2023-08-06T12:35:25;6.22;;;1.63;;
35634;SDS011;21757;43.610;1.440;2023-08-06T12:37:51;6.53;;;2.15;;
35634;SDS011;21757;43.610;1.440;2023-08-06T12:40:19;6.68;;;2.75;;
35634;SDS011;21757;43.610;1.440;2023-08-06T12:42:45;7.82;;;3.30;;
35634;SDS011;21757;43.610;1.440;2023-08-06T12:45:11;6.07;;;1.67;;
35634;SDS011;21757;43.610;1.440;2023-08-06T12:47:37;3.55;;;1.63;;
35634;SDS011;21757;43.610;1.440;2023-08-06T12:50:03;6.00;;;2.00;;
35634;SDS011;21757;43.610;1.440;2023-08-06T12:52:29;8.88;;;2.05;;
35634;SDS011;21757;43.610;1.440;2023-08-06T12:54:54;3.85;;;1.88;;
35634;SDS011;21757;43.610;1.440;2023-08-06T12:57:20;3.78;;;1.40;;
35634;SDS011;21757;43.610;1.440;2023-08-06T12:59:46;3.50;;;1.55;;
35634;SDS011;21757;43.610;1.440;2023-08-06T13:02:11;4.40;;;1.67;;
35634;SDS011;21757;43.610;1.440;2023-08-06T13:04:37;6.88;;;2.08;;
35634;SDS011;21757;43.610;1.440;2023-08-06T13:07:03;5.30;;;1.83;;
35634;SDS011;21757;43.610;1.440;2023-08-06T13:09:29;6.65;;;1.77;;
35634;SDS011;21757;43.610;1.440;2023-08-06T13:11:55;7.55;;;2.28;;
35634;SDS011;21757;43.610;1.440;2023-08-06T13:14:21;7.18;;;1.90;;
35634;SDS011;21757;43.610;1.440;2023-08-06T13:16:47;4.82;;;1.90;;
35634;SDS011;21757;43.610;1.440;2023-08-06T13:19:12;6.00;;;1.77;;
35634;SDS011;21757;43.610;1.440;2023-08-06T13:24:07;6.65;;;2.22;;
35634;SDS011;21757;43.610;1.440;2023-08-06T13:26:33;4.28;;;1.77;;
35634;SDS011;21757;43.610;1.440;2023-08-06T13:29:00;6.05;;;1.88;;
35634;SDS011;21757;43.610;1.440;2023-08-06T13:31:26;5.57;;;1.67;;
35634;SDS011;21757;43.610;1.440;2023-08-06T13:33:54;7.68;;;2.03;;
35634;SDS011;21757;43.610;1.440;2023-08-06T13:36:20;4.80;;;1.60;;
35634;SDS011;21757;43.610;1.440;2023-08-06T13:38:47;8.27;;;2.13;;
35634;SDS011;21757;43.610;1.440;2023-08-06T13:41:13;9.32;;;2.00;;
35634;SDS011;21757;43.610;1.440;2023-08-06T13:43:39;6.30;;;2.10;;
35634;SDS011;21757;43.610;1.440;2023-08-06T13:46:04;6.35;;;2.28;;
35634;SDS011;21757;43.610;1.440;2023-08-06T13:48:30;5.45;;;1.85;;
35634;SDS011;21757;43.610;1.440;2023-08-06T13:50:56;6.63;;;1.90;;
35634;SDS011;21757;43.610;1.440;2023-08-06T13:53:21;6.50;;;1.92;;
35634;SDS011;21757;43.610;1.440;2023-08-06T13:55:47;4.68;;;2.00;;
35634;SDS011;21757;43.610;1.440;2023-08-06T13:58:13;5.72;;;2.25;;
35634;SDS011;21757;43.610;1.440;2023-08-06T14:00:38;6.10;;;2.05;;
35634;SDS011;21757;43.610;1.440;2023-08-06T14:03:04;5.20;;;1.92;;
35634;SDS011;21757;43.610;1.440;2023-08-06T14:05:30;6.82;;;2.00;;
35634;SDS011;21757;43.610;1.440;2023-08-06T14:07:55;6.38;;;2.00;;
35634;SDS011;21757;43.610;1.440;2023-08-06T14:10:21;6.10;;;2.08;;
35634;SDS011;21757;43.610;1.440;2023-08-06T14:12:47;8.10;;;2.30;;
35634;SDS011;21757;43.610;1.440;2023-08-06T14:15:13;6.85;;;1.80;;
35634;SDS011;21757;43.610;1.440;2023-08-06T14:17:38;5.05;;;1.45;;
35634;SDS011;21757;43.610;1.440;2023-08-06T14:20:05;5.25;;;1.60;;
35634;SDS011;21757;43.610;1.440;2023-08-06T14:22:33;6.72;;;1.85;;
35634;SDS011;21757;43.610;1.440;2023-08-06T14:24:59;5.55;;;1.85;;
35634;SDS011;21757;43.610;1.440;2023-08-06T14:27:24;7.47;;;2.47;;
35634;SDS011;21757;43.610;1.440;2023-08-06T14:29:50;6.25;;;1.75;;
35634;SDS011;21757;43.610;1.440;2023-08-06T14:32:16;6.13;;;1.67;;
35634;SDS011;21757;43.610;1.440;2023-08-06T14:34:43;7.45;;;2.13;;
35634;SDS011;21757;43.610;1.440;2023-08-06T14:37:09;6.43;;;1.95;;
35634;SDS011;21757;43.610;1.440;2023-08-06T14:39:35;5.65;;;2.00;;
35634;SDS011;21757;43.610;1.440;2023-08-06T14:42:01;5.70;;;1.83;;
35634;SDS011;21757;43.610;1.440;2023-08-06T14:44:28;4.15;;;1.67;;
35634;SDS011;21757;43.610;1.440;2023-08-06T14:46:53;7.75;;;2.05;;
35634;SDS011;21757;43.610;1.440;2023-08-06T14:49:19;6.50;;;1.90;;